sensor_id;sensor_type;location;lat;lon;timestamp;temperature;humidity
35313;DHT22;21425;50.454;30.466;2022-08-19T00:01:32;18.30;99.90
35313;DHT22;21425;50.454;30.466;2022-08-19T00:04:01;19.90;99.90
35313;DHT22;21425;50.454;30.466;2022-08-19T00:06:28;19.80;99.90
35313;DHT22;21425;50.454;30.466;2022-08-19T00:11:20;19.80;99.90
35313;DHT22;21425;50.454;30.466;2022-08-19T00:13:46;19.80;99.90
35313;DHT22;21425;50.454;30.466;2022-08-19T00:16:14;19.80;99.90
35313;DHT22;21425;50.454;30.466;2022-08-19T00:18:41;19.70;99.90
35313;DHT22;21425;50.454;30.466;2022-08-19T00:21:06;19.70;99.90
35313;DHT22;21425;50.454;30.466;2022-08-19T00:23:33;19.70;99.90
35313;DHT22;21425;50.454;30.466;2022-08-19T00:26:00;19.70;99.90
35313;DHT22;21425;50.454;30.466;2022-08-19T00:28:26;19.60;99.90
35313;DHT22;21425;50.454;30.466;2022-08-19T00:30:52;18.30;99.90
35313;DHT22;21425;50.454;30.466;2022-08-19T00:33:18;19.50;99.90
35313;DHT22;21425;50.454;30.466;2022-08-19T00:35:44;19.10;99.90
35313;DHT22;21425;50.454;30.466;2022-08-19T00:38:10;19.60;99.90
35313;DHT22;21425;50.454;30.466;2022-08-19T00:40:35;19.60;99.90
35313;DHT22;21425;50.454;30.466;2022-08-19T00:43:01;19.50;99.90
35313;DHT22;21425;50.454;30.466;2022-08-19T00:45:32;19.50;99.90
35313;DHT22;21425;50.454;30.466;2022-08-19T00:50:30;19.40;99.90
35313;DHT22;21425;50.454;30.466;2022-08-19T00:52:56;19.50;99.90
35313;DHT22;21425;50.454;30.466;2022-08-19T00:55:26;19.40;99.90
35313;DHT22;21425;50.454;30.466;2022-08-19T00:58:03;19.50;99.90
35313;DHT22;21425;50.454;30.466;2022-08-19T01:00:31;19.40;99.90
35313;DHT22;21425;50.454;30.466;2022-08-19T01:02:57;19.40;99.90
35313;DHT22;21425;50.454;30.466;2022-08-19T01:05:26;19.40;99.90
35313;DHT22;21425;50.454;30.466;2022-08-19T01:07:54;19.60;99.90
35313;DHT22;21425;50.454;30.466;2022-08-19T01:10:25;19.30;99.90
35313;DHT22;21425;50.454;30.466;2022-08-19T01:12:52;19.30;99.90
35313;DHT22;21425;50.454;30.466;2022-08-19T01:15:21;19.50;99.90
35313;DHT22;21425;50.454;30.466;2022-08-19T01:17:48;19.30;99.90
35313;DHT22;21425;50.454;30.466;2022-08-19T01:20:18;19.20;99.90
35313;DHT22;21425;50.454;30.466;2022-08-19T01:22:56;19.20;99.90
35313;DHT22;21425;50.454;30.466;2022-08-19T01:25:28;19.20;99.90
35313;DHT22;21425;50.454;30.466;2022-08-19T01:27:54;19.10;99.90
35313;DHT22;21425;50.454;30.466;2022-08-19T01:30:29;19.10;99.90
35313;DHT22;21425;50.454;30.466;2022-08-19T01:32:56;19.00;99.90
35313;DHT22;21425;50.454;30.466;2022-08-19T01:35:23;19.00;99.90
35313;DHT22;21425;50.454;30.466;2022-08-19T01:38:02;19.00;99.90
35313;DHT22;21425;50.454;30.466;2022-08-19T01:40:31;19.00;99.90
35313;DHT22;21425;50.454;30.466;2022-08-19T01:42:59;19.00;99.90
35313;DHT22;21425;50.454;30.466;2022-08-19T01:45:27;19.00;99.90
35313;DHT22;21425;50.454;30.466;2022-08-19T01:47:54;19.30;99.90
35313;DHT22;21425;50.454;30.466;2022-08-19T01:50:20;19.10;99.90
35313;DHT22;21425;50.454;30.466;2022-08-19T01:52:46;18.90;99.90
35313;DHT22;21425;50.454;30.466;2022-08-19T01:55:16;18.80;99.90
35313;DHT22;21425;50.454;30.466;2022-08-19T01:57:48;18.70;99.90
35313;DHT22;21425;50.454;30.466;2022-08-19T02:00:19;18.60;99.90
35313;DHT22;21425;50.454;30.466;2022-08-19T02:02:45;18.70;99.90
35313;DHT22;21425;50.454;30.466;2022-08-19T02:05:11;18.60;99.90
35313;DHT22;21425;50.454;30.466;2022-08-19T02:07:39;18.70;99.90
35313;DHT22;21425;50.454;30.466;2022-08-19T02:10:13;18.50;99.90
35313;DHT22;21425;50.454;30.466;2022-08-19T02:12:39;18.50;99.90
35313;DHT22;21425;50.454;30.466;2022-08-19T02:15:06;18.50;99.90
35313;DHT22;21425;50.454;30.466;2022-08-19T02:17:33;20.00;99.90
35313;DHT22;21425;50.454;30.466;2022-08-19T02:19:58;18.60;99.90
35313;DHT22;21425;50.454;30.466;2022-08-19T02:22:24;18.50;99.90
35313;DHT22;21425;50.454;30.466;2022-08-19T02:24:54;17.70;99.90
35313;DHT22;21425;50.454;30.466;2022-08-19T02:27:21;18.40;99.90
35313;DHT22;21425;50.454;30.466;2022-08-19T02:29:48;17.00;99.90
35313;DHT22;21425;50.454;30.466;2022-08-19T02:32:15;18.40;99.90
35313;DHT22;21425;50.454;30.466;2022-08-19T02:34:40;18.40;99.90
35313;DHT22;21425;50.454;30.466;2022-08-19T02:37:06;18.60;99.90
35313;DHT22;21425;50.454;30.466;2022-08-19T02:39:52;18.00;99.90
35313;DHT22;21425;50.454;30.466;2022-08-19T02:42:18;18.40;99.90
35313;DHT22;21425;50.454;30.466;2022-08-19T02:47:09;18.30;99.90
35313;DHT22;21425;50.454;30.466;2022-08-19T02:49:35;18.30;99.90
35313;DHT22;21425;50.454;30.466;2022-08-19T02:52:02;18.30;99.90
35313;DHT22;21425;50.454;30.466;2022-08-19T02:54:28;17.70;99.90
35313;DHT22;21425;50.454;30.466;2022-08-19T02:56:54;18.20;99.90
35313;DHT22;21425;50.454;30.466;2022-08-19T02:59:19;18.20;99.90
35313;DHT22;21425;50.454;30.466;2022-08-19T03:01:45;18.60;99.90
35313;DHT22;21425;50.454;30.466;2022-08-19T03:04:13;18.20;99.90
35313;DHT22;21425;50.454;30.466;2022-08-19T03:06:41;17.80;99.90
35313;DHT22;21425;50.454;30.466;2022-08-19T03:09:07;18.00;99.90
35313;DHT22;21425;50.454;30.466;2022-08-19T03:11:33;18.10;99.90
35313;DHT22;21425;50.454;30.466;2022-08-19T03:13:59;18.10;99.90
35313;DHT22;21425;50.454;30.466;2022-08-19T03:16:27;18.10;99.90
35313;DHT22;21425;50.454;30.466;2022-08-19T03:18:53;18.70;99.90
35313;DHT22;21425;50.454;30.466;2022-08-19T03:21:22;18.10;99.90
35313;DHT22;21425;50.454;30.466;2022-08-19T03:23:49;18.30;99.90
35313;DHT22;21425;50.454;30.466;2022-08-19T03:26:16;18.00;99.90
35313;DHT22;21425;50.454;30.466;2022-08-19T03:28:42;18.20;99.90
35313;DHT22;21425;50.454;30.466;2022-08-19T03:31:12;18.10;99.90
35313;DHT22;21425;50.454;30.466;2022-08-19T03:33:38;17.30;99.90
35313;DHT22;21425;50.454;30.466;2022-08-19T03:36:14;17.40;99.90
35313;DHT22;21425;50.454;30.466;2022-08-19T03:38:49;18.10;99.90
35313;DHT22;21425;50.454;30.466;2022-08-19T03:41:21;18.20;99.90
35313;DHT22;21425;50.454;30.466;2022-08-19T03:43:47;18.20;99.90
35313;DHT22;21425;50.454;30.466;2022-08-19T03:46:16;17.60;99.90
35313;DHT22;21425;50.454;30.466;2022-08-19T03:48:43;18.20;99.90
35313;DHT22;21425;50.454;30.466;2022-08-19T03:51:18;18.40;99.90
35313;DHT22;21425;50.454;30.466;2022-08-19T03:53:45;18.30;99.90
35313;DHT22;21425;50.454;30.466;2022-08-19T03:56:11;18.40;99.90
35313;DHT22;21425;50.454;30.466;2022-08-19T03:58:38;18.30;99.90
35313;DHT22;21425;50.454;30.466;2022-08-19T04:01:09;18.40;99.90
35313;DHT22;21425;50.454;30.466;2022-08-19T04:06:10;18.10;99.90
35313;DHT22;21425;50.454;30.466;2022-08-19T04:08:37;17.90;99.90
35313;DHT22;21425;50.454;30.466;2022-08-19T04:11:07;18.00;99.90
35313;DHT22;21425;50.454;30.466;2022-08-19T04:13:33;18.60;99.90
35313;DHT22;21425;50.454;30.466;2022-08-19T04:15:59;18.50;99.90
35313;DHT22;21425;50.454;30.466;2022-08-19T04:18:24;19.50;99.90
35313;DHT22;21425;50.454;30.466;2022-08-19T04:20:52;19.60;99.90
35313;DHT22;21425;50.454;30.466;2022-08-19T04:23:17;18.80;99.90
35313;DHT22;21425;50.454;30.466;2022-08-19T04:28:12;18.90;99.90
35313;DHT22;21425;50.454;30.466;2022-08-19T04:30:49;19.20;99.90
35313;DHT22;21425;50.454;30.466;2022-08-19T04:33:17;18.70;99.90
35313;DHT22;21425;50.454;30.466;2022-08-19T04:35:46;17.30;99.90
35313;DHT22;21425;50.454;30.466;2022-08-19T04:38:12;18.90;99.90
35313;DHT22;21425;50.454;30.466;2022-08-19T04:40:47;18.90;99.90
35313;DHT22;21425;50.454;30.466;2022-08-19T04:43:33;20.60;99.90
35313;DHT22;21425;50.454;30.466;2022-08-19T04:46:13;18.80;99.90
35313;DHT22;21425;50.454;30.466;2022-08-19T04:48:39;18.90;99.90
35313;DHT22;21425;50.454;30.466;2022-08-19T04:51:10;18.80;99.90
35313;DHT22;21425;50.454;30.466;2022-08-19T04:53:38;19.50;99.90
35313;DHT22;21425;50.454;30.466;2022-08-19T04:56:08;18.90;99.90
35313;DHT22;21425;50.454;30.466;2022-08-19T04:58:35;17.70;99.90
35313;DHT22;21425;50.454;30.466;2022-08-19T05:01:01;19.00;99.90
35313;DHT22;21425;50.454;30.466;2022-08-19T05:03:27;20.00;99.90
35313;DHT22;21425;50.454;30.466;2022-08-19T05:06:04;19.60;99.90
35313;DHT22;21425;50.454;30.466;2022-08-19T05:08:32;19.00;99.90
35313;DHT22;21425;50.454;30.466;2022-08-19T05:13:25;19.50;99.90
35313;DHT22;21425;50.454;30.466;2022-08-19T05:15:57;18.90;99.90
35313;DHT22;21425;50.454;30.466;2022-08-19T05:18:23;19.30;99.90
35313;DHT22;21425;50.454;30.466;2022-08-19T05:21:08;18.90;99.90
35313;DHT22;21425;50.454;30.466;2022-08-19T05:23:52;19.30;99.90
35313;DHT22;21425;50.454;30.466;2022-08-19T05:28:44;19.80;99.90
35313;DHT22;21425;50.454;30.466;2022-08-19T05:31:09;19.00;99.90
35313;DHT22;21425;50.454;30.466;2022-08-19T05:33:35;19.10;99.90
35313;DHT22;21425;50.454;30.466;2022-08-19T05:36:02;19.20;99.90
35313;DHT22;21425;50.454;30.466;2022-08-19T05:38:28;18.00;99.90
35313;DHT22;21425;50.454;30.466;2022-08-19T05:40:55;19.30;99.90
35313;DHT22;21425;50.454;30.466;2022-08-19T05:43:21;18.60;99.90
35313;DHT22;21425;50.454;30.466;2022-08-19T05:45:46;20.10;99.90
35313;DHT22;21425;50.454;30.466;2022-08-19T05:48:12;19.40;99.90
35313;DHT22;21425;50.454;30.466;2022-08-19T05:50:40;19.40;99.90
35313;DHT22;21425;50.454;30.466;2022-08-19T05:53:07;19.60;99.90
35313;DHT22;21425;50.454;30.466;2022-08-19T05:55:35;18.80;99.90
35313;DHT22;21425;50.454;30.466;2022-08-19T05:58:02;20.00;99.90
35313;DHT22;21425;50.454;30.466;2022-08-19T06:00:28;21.00;99.90
35313;DHT22;21425;50.454;30.466;2022-08-19T06:02:56;19.70;99.90
35313;DHT22;21425;50.454;30.466;2022-08-19T06:07:50;19.70;99.90
35313;DHT22;21425;50.454;30.466;2022-08-19T06:10:16;20.30;99.90
35313;DHT22;21425;50.454;30.466;2022-08-19T06:12:41;20.90;99.90
35313;DHT22;21425;50.454;30.466;2022-08-19T06:15:11;19.80;99.90
35313;DHT22;21425;50.454;30.466;2022-08-19T06:17:39;19.20;99.90
35313;DHT22;21425;50.454;30.466;2022-08-19T06:20:06;20.00;99.90
35313;DHT22;21425;50.454;30.466;2022-08-19T06:22:38;19.70;99.90
35313;DHT22;21425;50.454;30.466;2022-08-19T06:25:04;21.20;99.90
35313;DHT22;21425;50.454;30.466;2022-08-19T06:27:29;18.80;99.90
35313;DHT22;21425;50.454;30.466;2022-08-19T06:29:57;21.10;99.90
35313;DHT22;21425;50.454;30.466;2022-08-19T06:32:22;20.20;99.90
35313;DHT22;21425;50.454;30.466;2022-08-19T06:34:48;19.50;99.90
35313;DHT22;21425;50.454;30.466;2022-08-19T06:37:14;20.20;99.90
35313;DHT22;21425;50.454;30.466;2022-08-19T06:39:43;20.80;99.90
35313;DHT22;21425;50.454;30.466;2022-08-19T06:42:10;20.80;99.90
35313;DHT22;21425;50.454;30.466;2022-08-19T06:44:40;20.90;99.90
35313;DHT22;21425;50.454;30.466;2022-08-19T06:47:07;20.80;99.90
35313;DHT22;21425;50.454;30.466;2022-08-19T06:49:34;20.90;99.90
35313;DHT22;21425;50.454;30.466;2022-08-19T06:52:00;20.80;99.90
35313;DHT22;21425;50.454;30.466;2022-08-19T06:54:27;20.50;99.90
35313;DHT22;21425;50.454;30.466;2022-08-19T06:56:57;21.10;99.90
35313;DHT22;21425;50.454;30.466;2022-08-19T06:59:24;21.00;99.90
35313;DHT22;21425;50.454;30.466;2022-08-19T07:01:55;21.20;99.90
35313;DHT22;21425;50.454;30.466;2022-08-19T07:04:24;21.00;99.90
35313;DHT22;21425;50.454;30.466;2022-08-19T07:06:56;21.00;99.90
35313;DHT22;21425;50.454;30.466;2022-08-19T07:09:22;21.20;99.90
35313;DHT22;21425;50.454;30.466;2022-08-19T07:11:50;20.50;99.90
35313;DHT22;21425;50.454;30.466;2022-08-19T07:14:19;21.00;99.90
35313;DHT22;21425;50.454;30.466;2022-08-19T07:16:46;20.90;99.90
35313;DHT22;21425;50.454;30.466;2022-08-19T07:19:13;21.20;99.90
35313;DHT22;21425;50.454;30.466;2022-08-19T07:21:39;21.30;99.90
35313;DHT22;21425;50.454;30.466;2022-08-19T07:24:04;21.40;99.90
35313;DHT22;21425;50.454;30.466;2022-08-19T07:26:32;20.60;99.90
35313;DHT22;21425;50.454;30.466;2022-08-19T07:28:58;20.50;99.90
35313;DHT22;21425;50.454;30.466;2022-08-19T07:31:26;21.40;99.90
35313;DHT22;21425;50.454;30.466;2022-08-19T07:33:54;22.80;99.90
35313;DHT22;21425;50.454;30.466;2022-08-19T07:36:23;21.50;99.90
35313;DHT22;21425;50.454;30.466;2022-08-19T07:38:50;20.80;99.90
35313;DHT22;21425;50.454;30.466;2022-08-19T07:41:20;21.80;99.90
35313;DHT22;21425;50.454;30.466;2022-08-19T07:43:46;21.60;99.90
35313;DHT22;21425;50.454;30.466;2022-08-19T07:46:12;20.80;99.90
35313;DHT22;21425;50.454;30.466;2022-08-19T07:48:42;21.80;99.90
35313;DHT22;21425;50.454;30.466;2022-08-19T07:51:13;21.80;99.90
35313;DHT22;21425;50.454;30.466;2022-08-19T07:56:05;22.00;99.90
35313;DHT22;21425;50.454;30.466;2022-08-19T07:58:35;23.20;99.90
35313;DHT22;21425;50.454;30.466;2022-08-19T08:01:02;21.90;99.90
35313;DHT22;21425;50.454;30.466;2022-08-19T08:03:28;22.00;99.90
35313;DHT22;21425;50.454;30.466;2022-08-19T08:06:15;21.70;99.90
35313;DHT22;21425;50.454;30.466;2022-08-19T08:09:00;21.90;99.90
35313;DHT22;21425;50.454;30.466;2022-08-19T08:11:43;22.90;99.90
35313;DHT22;21425;50.454;30.466;2022-08-19T08:14:19;22.40;99.90
35313;DHT22;21425;50.454;30.466;2022-08-19T08:16:45;24.10;99.90
35313;DHT22;21425;50.454;30.466;2022-08-19T08:19:13;23.80;99.90
35313;DHT22;21425;50.454;30.466;2022-08-19T08:24:09;23.20;99.90
35313;DHT22;21425;50.454;30.466;2022-08-19T08:26:34;22.30;99.90
35313;DHT22;21425;50.454;30.466;2022-08-19T08:29:00;23.70;99.90
35313;DHT22;21425;50.454;30.466;2022-08-19T08:31:26;22.50;99.90
35313;DHT22;21425;50.454;30.466;2022-08-19T08:33:52;20.80;99.90
35313;DHT22;21425;50.454;30.466;2022-08-19T08:38:45;22.90;99.90
35313;DHT22;21425;50.454;30.466;2022-08-19T08:41:35;22.60;99.90
35313;DHT22;21425;50.454;30.466;2022-08-19T08:44:03;22.70;99.90
35313;DHT22;21425;50.454;30.466;2022-08-19T08:46:43;21.90;99.90
35313;DHT22;21425;50.454;30.466;2022-08-19T08:52:27;22.10;99.90
35313;DHT22;21425;50.454;30.466;2022-08-19T08:54:57;23.10;99.90
35313;DHT22;21425;50.454;30.466;2022-08-19T08:57:37;22.50;99.90
35313;DHT22;21425;50.454;30.466;2022-08-19T09:00:09;21.80;99.90
35313;DHT22;21425;50.454;30.466;2022-08-19T09:02:36;23.10;99.90
35313;DHT22;21425;50.454;30.466;2022-08-19T09:05:02;22.80;99.90
35313;DHT22;21425;50.454;30.466;2022-08-19T09:10:36;23.00;99.90
35313;DHT22;21425;50.454;30.466;2022-08-19T09:15:47;23.40;99.90
35313;DHT22;21425;50.454;30.466;2022-08-19T09:18:14;23.50;99.90
35313;DHT22;21425;50.454;30.466;2022-08-19T09:20:40;24.10;99.90
35313;DHT22;21425;50.454;30.466;2022-08-19T09:23:06;24.20;99.90
35313;DHT22;21425;50.454;30.466;2022-08-19T09:25:31;23.60;99.90
35313;DHT22;21425;50.454;30.466;2022-08-19T09:28:00;23.70;99.90
35313;DHT22;21425;50.454;30.466;2022-08-19T09:30:32;24.50;99.90
35313;DHT22;21425;50.454;30.466;2022-08-19T09:32:58;24.70;99.90
35313;DHT22;21425;50.454;30.466;2022-08-19T09:35:27;23.70;99.90
35313;DHT22;21425;50.454;30.466;2022-08-19T09:37:55;23.60;99.90
35313;DHT22;21425;50.454;30.466;2022-08-19T09:40:22;23.80;99.90
35313;DHT22;21425;50.454;30.466;2022-08-19T09:42:48;23.70;99.90
35313;DHT22;21425;50.454;30.466;2022-08-19T09:45:16;23.50;99.90
35313;DHT22;21425;50.454;30.466;2022-08-19T09:47:42;24.60;99.90
35313;DHT22;21425;50.454;30.466;2022-08-19T09:50:10;23.80;99.90
35313;DHT22;21425;50.454;30.466;2022-08-19T09:52:36;23.70;99.90
35313;DHT22;21425;50.454;30.466;2022-08-19T09:55:06;23.50;99.90
35313;DHT22;21425;50.454;30.466;2022-08-19T09:57:32;24.60;99.90
35313;DHT22;21425;50.454;30.466;2022-08-19T09:59:58;24.10;99.90
35313;DHT22;21425;50.454;30.466;2022-08-19T10:07:35;23.70;99.90
35313;DHT22;21425;50.454;30.466;2022-08-19T10:10:03;25.00;99.90
35313;DHT22;21425;50.454;30.466;2022-08-19T10:12:29;25.00;99.90
35313;DHT22;21425;50.454;30.466;2022-08-19T10:14:55;24.60;99.90
35313;DHT22;21425;50.454;30.466;2022-08-19T10:17:21;25.20;99.90
35313;DHT22;21425;50.454;30.466;2022-08-19T10:19:47;23.60;99.90
35313;DHT22;21425;50.454;30.466;2022-08-19T10:22:13;23.50;99.90
35313;DHT22;21425;50.454;30.466;2022-08-19T10:27:05;24.40;99.90
35313;DHT22;21425;50.454;30.466;2022-08-19T10:29:31;23.40;99.90
35313;DHT22;21425;50.454;30.466;2022-08-19T10:32:05;25.80;99.90
35313;DHT22;21425;50.454;30.466;2022-08-19T10:34:34;25.60;99.90
35313;DHT22;21425;50.454;30.466;2022-08-19T10:37:02;25.10;99.90
35313;DHT22;21425;50.454;30.466;2022-08-19T10:39:35;26.30;99.90
35313;DHT22;21425;50.454;30.466;2022-08-19T10:42:06;25.50;99.90
35313;DHT22;21425;50.454;30.466;2022-08-19T10:44:33;25.70;99.90
35313;DHT22;21425;50.454;30.466;2022-08-19T10:47:02;25.20;99.90
35313;DHT22;21425;50.454;30.466;2022-08-19T10:49:28;27.40;99.90
35313;DHT22;21425;50.454;30.466;2022-08-19T10:51:54;27.00;99.90
35313;DHT22;21425;50.454;30.466;2022-08-19T10:54:38;27.20;99.90
35313;DHT22;21425;50.454;30.466;2022-08-19T10:57:22;27.30;99.90
35313;DHT22;21425;50.454;30.466;2022-08-19T10:59:52;27.20;99.90
35313;DHT22;21425;50.454;30.466;2022-08-19T11:04:44;25.40;99.90
35313;DHT22;21425;50.454;30.466;2022-08-19T11:07:09;26.20;99.90
35313;DHT22;21425;50.454;30.466;2022-08-19T11:09:39;25.40;99.90
35313;DHT22;21425;50.454;30.466;2022-08-19T11:12:06;25.60;99.90
35313;DHT22;21425;50.454;30.466;2022-08-19T11:14:34;25.80;99.90
35313;DHT22;21425;50.454;30.466;2022-08-19T11:17:00;25.70;99.90
35313;DHT22;21425;50.454;30.466;2022-08-19T11:19:26;25.80;99.90
35313;DHT22;21425;50.454;30.466;2022-08-19T11:21:53;25.50;99.90
35313;DHT22;21425;50.454;30.466;2022-08-19T11:24:22;25.40;99.90
35313;DHT22;21425;50.454;30.466;2022-08-19T11:26:50;25.50;99.90
35313;DHT22;21425;50.454;30.466;2022-08-19T11:29:17;25.60;99.90
35313;DHT22;21425;50.454;30.466;2022-08-19T11:31:45;25.80;99.90
35313;DHT22;21425;50.454;30.466;2022-08-19T11:34:15;25.70;99.90
35313;DHT22;21425;50.454;30.466;2022-08-19T11:36:44;25.80;99.90
35313;DHT22;21425;50.454;30.466;2022-08-19T11:39:13;25.40;99.90
35313;DHT22;21425;50.454;30.466;2022-08-19T11:41:39;26.00;99.90
35313;DHT22;21425;50.454;30.466;2022-08-19T11:44:06;26.50;99.90
35313;DHT22;21425;50.454;30.466;2022-08-19T11:46:33;26.00;99.90
35313;DHT22;21425;50.454;30.466;2022-08-19T11:49:00;25.80;99.90
35313;DHT22;21425;50.454;30.466;2022-08-19T11:51:27;25.70;99.90
35313;DHT22;21425;50.454;30.466;2022-08-19T11:53:55;25.70;99.90
35313;DHT22;21425;50.454;30.466;2022-08-19T11:56:21;26.20;99.90
35313;DHT22;21425;50.454;30.466;2022-08-19T11:58:48;25.90;99.90
35313;DHT22;21425;50.454;30.466;2022-08-19T12:01:16;25.50;99.90
35313;DHT22;21425;50.454;30.466;2022-08-19T12:03:44;25.20;99.90
35313;DHT22;21425;50.454;30.466;2022-08-19T12:06:13;25.10;99.90
35313;DHT22;21425;50.454;30.466;2022-08-19T12:08:42;25.60;99.90
35313;DHT22;21425;50.454;30.466;2022-08-19T12:11:09;25.50;99.90
35313;DHT22;21425;50.454;30.466;2022-08-19T12:13:36;25.70;99.90
35313;DHT22;21425;50.454;30.466;2022-08-19T12:16:13;25.10;99.90
35313;DHT22;21425;50.454;30.466;2022-08-19T12:18:40;25.70;99.90
35313;DHT22;21425;50.454;30.466;2022-08-19T12:21:15;25.40;99.90
35313;DHT22;21425;50.454;30.466;2022-08-19T12:23:42;25.30;99.90
35313;DHT22;21425;50.454;30.466;2022-08-19T12:26:09;25.50;99.90
35313;DHT22;21425;50.454;30.466;2022-08-19T12:28:36;25.40;99.90
35313;DHT22;21425;50.454;30.466;2022-08-19T12:31:02;24.90;99.90
35313;DHT22;21425;50.454;30.466;2022-08-19T12:33:28;25.00;99.90
35313;DHT22;21425;50.454;30.466;2022-08-19T12:35:54;25.40;99.90
35313;DHT22;21425;50.454;30.466;2022-08-19T12:38:24;24.90;99.90
35313;DHT22;21425;50.454;30.466;2022-08-19T12:40:50;24.40;99.90
35313;DHT22;21425;50.454;30.466;2022-08-19T12:43:17;24.40;99.90
35313;DHT22;21425;50.454;30.466;2022-08-19T12:45:45;24.10;99.90
35313;DHT22;21425;50.454;30.466;2022-08-19T12:48:11;24.90;99.90
35313;DHT22;21425;50.454;30.466;2022-08-19T12:50:39;24.80;99.90
35313;DHT22;21425;50.454;30.466;2022-08-19T12:53:05;22.70;99.90
35313;DHT22;21425;50.454;30.466;2022-08-19T12:55:31;23.80;99.90
35313;DHT22;21425;50.454;30.466;2022-08-19T12:57:57;22.40;99.90
35313;DHT22;21425;50.454;30.466;2022-08-19T13:00:22;23.80;99.90
35313;DHT22;21425;50.454;30.466;2022-08-19T13:02:51;21.70;99.90
35313;DHT22;21425;50.454;30.466;2022-08-19T13:05:23;23.10;99.90
35313;DHT22;21425;50.454;30.466;2022-08-19T13:07:50;23.00;99.90
35313;DHT22;21425;50.454;30.466;2022-08-19T13:10:19;24.80;99.90
35313;DHT22;21425;50.454;30.466;2022-08-19T13:12:47;24.60;99.90
35313;DHT22;21425;50.454;30.466;2022-08-19T13:15:15;23.30;99.90
35313;DHT22;21425;50.454;30.466;2022-08-19T13:20:10;22.30;99.90
35313;DHT22;21425;50.454;30.466;2022-08-19T13:22:36;22.80;99.90
35313;DHT22;21425;50.454;30.466;2022-08-19T13:25:04;24.70;99.90
35313;DHT22;21425;50.454;30.466;2022-08-19T13:27:31;23.50;99.90
35313;DHT22;21425;50.454;30.466;2022-08-19T13:29:56;23.60;99.90
35313;DHT22;21425;50.454;30.466;2022-08-19T13:32:40;21.80;99.90
35313;DHT22;21425;50.454;30.466;2022-08-19T13:35:25;23.50;99.90
35313;DHT22;21425;50.454;30.466;2022-08-19T13:37:50;23.20;99.90
35313;DHT22;21425;50.454;30.466;2022-08-19T13:40:19;22.50;99.90
35313;DHT22;21425;50.454;30.466;2022-08-19T13:42:47;22.80;99.90
35313;DHT22;21425;50.454;30.466;2022-08-19T13:45:16;21.80;99.90
35313;DHT22;21425;50.454;30.466;2022-08-19T13:47:49;22.70;99.90
35313;DHT22;21425;50.454;30.466;2022-08-19T13:50:19;22.30;99.90
35313;DHT22;21425;50.454;30.466;2022-08-19T13:52:46;22.50;99.90
35313;DHT22;21425;50.454;30.466;2022-08-19T13:55:13;23.10;99.90
35313;DHT22;21425;50.454;30.466;2022-08-19T13:57:40;22.70;99.90
35313;DHT22;21425;50.454;30.466;2022-08-19T14:00:12;23.50;99.90
35313;DHT22;21425;50.454;30.466;2022-08-19T14:02:39;23.00;99.90
35313;DHT22;21425;50.454;30.466;2022-08-19T14:05:07;21.90;99.90
35313;DHT22;21425;50.454;30.466;2022-08-19T14:07:33;23.00;99.90
35313;DHT22;21425;50.454;30.466;2022-08-19T14:09:59;22.20;99.90
35313;DHT22;21425;50.454;30.466;2022-08-19T14:12:25;21.80;99.90
35313;DHT22;21425;50.454;30.466;2022-08-19T14:14:50;23.20;99.90
35313;DHT22;21425;50.454;30.466;2022-08-19T14:17:16;22.50;99.90
35313;DHT22;21425;50.454;30.466;2022-08-19T14:19:42;22.90;99.90
35313;DHT22;21425;50.454;30.466;2022-08-19T14:22:08;21.70;99.90
35313;DHT22;21425;50.454;30.466;2022-08-19T14:27:00;22.50;99.90
35313;DHT22;21425;50.454;30.466;2022-08-19T14:36:47;22.80;99.90
35313;DHT22;21425;50.454;30.466;2022-08-19T14:39:13;22.60;99.90
35313;DHT22;21425;50.454;30.466;2022-08-19T14:41:41;22.90;99.90
35313;DHT22;21425;50.454;30.466;2022-08-19T14:44:07;24.00;99.90
35313;DHT22;21425;50.454;30.466;2022-08-19T14:46:35;24.90;99.90
35313;DHT22;21425;50.454;30.466;2022-08-19T14:49:01;25.40;99.90
35313;DHT22;21425;50.454;30.466;2022-08-19T14:51:27;24.40;99.90
35313;DHT22;21425;50.454;30.466;2022-08-19T14:53:53;25.50;99.90
35313;DHT22;21425;50.454;30.466;2022-08-19T14:56:22;26.60;99.90
35313;DHT22;21425;50.454;30.466;2022-08-19T14:58:48;26.50;99.90
35313;DHT22;21425;50.454;30.466;2022-08-19T15:01:17;24.10;99.90
35313;DHT22;21425;50.454;30.466;2022-08-19T15:03:46;26.40;99.90
35313;DHT22;21425;50.454;30.466;2022-08-19T15:06:11;26.50;99.90
35313;DHT22;21425;50.454;30.466;2022-08-19T15:08:38;26.40;96.80
35313;DHT22;21425;50.454;30.466;2022-08-19T15:11:16;26.30;97.20
35313;DHT22;21425;50.454;30.466;2022-08-19T15:13:43;24.80;97.60
35313;DHT22;21425;50.454;30.466;2022-08-19T15:16:09;26.80;96.50
35313;DHT22;21425;50.454;30.466;2022-08-19T15:18:36;27.60;96.50
35313;DHT22;21425;50.454;30.466;2022-08-19T15:21:03;27.10;96.60
35313;DHT22;21425;50.454;30.466;2022-08-19T15:23:29;27.10;96.60
35313;DHT22;21425;50.454;30.466;2022-08-19T15:25:54;26.00;94.00
35313;DHT22;21425;50.454;30.466;2022-08-19T15:28:25;27.00;94.60
35313;DHT22;21425;50.454;30.466;2022-08-19T15:30:51;26.60;92.20
35313;DHT22;21425;50.454;30.466;2022-08-19T15:33:18;27.40;92.80
35313;DHT22;21425;50.454;30.466;2022-08-19T15:35:45;26.20;95.30
35313;DHT22;21425;50.454;30.466;2022-08-19T15:38:11;25.80;96.70
35313;DHT22;21425;50.454;30.466;2022-08-19T15:40:39;25.50;97.00
35313;DHT22;21425;50.454;30.466;2022-08-19T15:43:06;24.30;99.70
35313;DHT22;21425;50.454;30.466;2022-08-19T15:47:59;23.10;99.90
35313;DHT22;21425;50.454;30.466;2022-08-19T15:50:25;23.00;99.90
35313;DHT22;21425;50.454;30.466;2022-08-19T15:52:57;22.90;99.90
35313;DHT22;21425;50.454;30.466;2022-08-19T15:55:27;24.40;99.90
35313;DHT22;21425;50.454;30.466;2022-08-19T15:57:53;24.40;99.90
35313;DHT22;21425;50.454;30.466;2022-08-19T16:00:37;23.80;99.90
35313;DHT22;21425;50.454;30.466;2022-08-19T16:03:21;21.30;99.90
35313;DHT22;21425;50.454;30.466;2022-08-19T16:06:05;23.30;99.90
35313;DHT22;21425;50.454;30.466;2022-08-19T16:08:54;23.50;99.90
35313;DHT22;21425;50.454;30.466;2022-08-19T16:11:23;22.30;99.90
35313;DHT22;21425;50.454;30.466;2022-08-19T16:13:50;21.80;99.90
35313;DHT22;21425;50.454;30.466;2022-08-19T16:16:18;21.40;99.90
35313;DHT22;21425;50.454;30.466;2022-08-19T16:18:44;21.30;99.90
35313;DHT22;21425;50.454;30.466;2022-08-19T16:21:13;21.70;99.90
35313;DHT22;21425;50.454;30.466;2022-08-19T16:23:43;21.50;99.90